createdAt,value
2019-03-05T00:00:04.233Z,26.70
2019-03-05T00:02:58.039Z,26.70
2019-03-05T00:05:50.486Z,26.60
2019-03-05T00:08:42.560Z,26.60
2019-03-05T00:11:34.533Z,26.60
2019-03-05T00:14:27.041Z,26.70
2019-03-05T00:17:19.424Z,26.70
2019-03-05T00:20:13.155Z,26.70
2019-03-05T00:23:08.377Z,26.70
2019-03-05T00:26:00.071Z,26.60
2019-03-05T00:29:00.725Z,26.70
2019-03-05T00:31:53.470Z,26.70
2019-03-05T00:34:55.271Z,26.70
2019-03-05T00:38:03.127Z,26.80
2019-03-05T00:41:22.895Z,26.80
2019-03-05T00:44:45.139Z,26.70
2019-03-05T00:47:55.416Z,26.40
2019-03-05T00:50:53.256Z,26.50
2019-03-05T00:53:53.274Z,26.50
2019-03-05T00:57:06.623Z,26.60
2019-03-05T01:00:01.590Z,26.70
2019-03-05T01:03:19.573Z,26.70
2019-03-05T01:06:19.493Z,26.40
2019-03-05T01:09:16.195Z,26.40
2019-03-05T01:12:08.818Z,26.60
2019-03-05T01:15:01.405Z,26.60
2019-03-05T01:17:54.028Z,26.70
2019-03-05T01:20:46.426Z,26.50
2019-03-05T01:23:38.600Z,26.40
2019-03-05T01:26:31.000Z,26.50
2019-03-05T01:29:23.462Z,26.50
2019-03-05T01:32:42.795Z,26.60
2019-03-05T01:35:40.041Z,26.60
2019-03-05T01:38:34.272Z,26.60
2019-03-05T01:41:26.829Z,26.60
2019-03-05T01:44:19.049Z,26.60
2019-03-05T01:47:11.442Z,26.60
2019-03-05T01:50:03.706Z,26.70
2019-03-05T01:52:56.244Z,26.70
2019-03-05T01:55:48.800Z,26.60
2019-03-05T01:58:41.116Z,26.60
2019-03-05T02:01:33.221Z,26.60
2019-03-05T02:04:26.023Z,26.60
2019-03-05T02:07:19.560Z,26.60
2019-03-05T02:10:16.603Z,26.50
2019-03-05T02:13:09.061Z,26.50
2019-03-05T02:16:01.233Z,26.50
2019-03-05T02:18:53.956Z,26.50
2019-03-05T02:21:46.354Z,26.50
2019-03-05T02:24:55.493Z,26.50
2019-03-05T02:27:55.164Z,26.50
2019-03-05T02:30:51.266Z,26.50
2019-03-05T02:34:25.826Z,26.50
2019-03-05T02:37:36.302Z,26.50
2019-03-05T02:40:52.910Z,26.50
2019-03-05T02:43:51.807Z,26.50
2019-03-05T02:46:50.117Z,26.50
2019-03-05T02:49:59.418Z,26.50
2019-03-05T02:53:15.815Z,26.50
2019-03-05T02:56:35.504Z,26.50
2019-03-05T02:59:27.940Z,26.50
2019-03-05T03:02:41.145Z,26.50
2019-03-05T03:05:42.808Z,26.50
2019-03-05T03:08:37.046Z,26.50
2019-03-05T03:11:29.581Z,26.50
2019-03-05T03:14:23.635Z,26.50
2019-03-05T03:17:20.221Z,26.50
2019-03-05T03:20:13.231Z,26.50
2019-03-05T03:23:05.934Z,26.50
2019-03-05T03:25:58.167Z,26.50
2019-03-05T03:28:50.810Z,26.50
2019-03-05T03:31:43.127Z,26.50
2019-03-05T03:34:37.359Z,26.50
2019-03-05T03:37:30.049Z,26.50
2019-03-05T03:40:23.741Z,26.50
2019-03-05T03:43:16.301Z,26.50
2019-03-05T03:46:08.717Z,26.50
2019-03-05T03:49:01.182Z,26.50
2019-03-05T03:52:06.989Z,26.50
2019-03-05T03:55:05.428Z,26.50
2019-03-05T03:58:06.666Z,26.50
2019-03-05T04:01:00.364Z,26.50
2019-03-05T04:03:56.746Z,26.50
2019-03-05T04:06:49.796Z,26.50
2019-03-05T04:09:46.834Z,26.50
2019-03-05T04:12:58.717Z,26.50
2019-03-05T04:15:54.771Z,26.50
2019-03-05T04:18:51.306Z,26.50
2019-03-05T04:21:48.102Z,26.50
2019-03-05T04:24:44.424Z,26.50
2019-03-05T04:27:42.890Z,26.50
2019-03-05T04:30:44.888Z,26.50
2019-03-05T04:34:30.714Z,26.50
2019-03-05T04:38:26.603Z,26.50
2019-03-05T04:45:09.294Z,26.50
2019-03-05T04:48:29.356Z,26.60
2019-03-05T04:51:41.585Z,26.30
2019-03-05T04:54:34.399Z,25.90
2019-03-05T04:57:28.800Z,25.70
2019-03-05T05:00:21.540Z,25.50
2019-03-05T05:04:27.902Z,25.30
2019-03-05T05:06:19.760Z,25.30
2019-03-05T05:09:15.063Z,25.30
2019-03-05T05:12:11.634Z,25.30
2019-03-05T05:15:19.825Z,25.30
2019-03-05T05:18:28.121Z,25.30
2019-03-05T05:21:22.332Z,25.30
2019-03-05T05:24:17.033Z,25.40
2019-03-05T05:27:13.044Z,25.20
2019-03-05T05:30:08.325Z,24.90
2019-03-05T05:33:04.788Z,24.70
2019-03-05T05:36:01.610Z,24.70
2019-03-05T05:38:56.998Z,24.50
2019-03-05T05:41:53.247Z,24.70
2019-03-05T05:44:48.263Z,25.10
2019-03-05T05:47:47.090Z,25.30
2019-03-05T05:50:45.291Z,25.50
2019-03-05T05:53:42.036Z,25.50
2019-03-05T05:56:39.937Z,25.60
2019-03-05T05:59:34.245Z,25.70
2019-03-05T06:02:39.566Z,25.70
2019-03-05T06:05:47.542Z,25.80
2019-03-05T06:08:44.965Z,25.90
2019-03-05T06:11:44.505Z,26.00
2019-03-05T06:14:45.258Z,26.00
2019-03-05T06:17:46.132Z,26.00
2019-03-05T06:20:42.434Z,26.00
2019-03-05T06:23:39.463Z,26.10
2019-03-05T06:26:38.417Z,26.10
2019-03-05T06:29:36.105Z,26.20
2019-03-05T06:32:30.519Z,26.20
2019-03-05T06:35:23.729Z,26.30
2019-03-05T06:38:19.931Z,26.20
2019-03-05T06:41:17.268Z,26.20
2019-03-05T06:44:10.068Z,26.30
2019-03-05T06:47:06.315Z,26.30
2019-03-05T06:50:24.533Z,26.30
2019-03-05T06:53:43.606Z,26.40
2019-03-05T06:56:31.995Z,26.40
2019-03-05T06:59:28.538Z,26.40
2019-03-05T07:02:22.444Z,26.40
2019-03-05T07:05:31.887Z,26.40
2019-03-05T07:08:27.332Z,26.40
2019-03-05T07:16:08.859Z,26.50
2019-03-05T07:20:21.154Z,26.50
2019-03-05T07:22:38.207Z,26.60
2019-03-05T07:25:36.952Z,26.70
2019-03-05T07:28:32.821Z,26.70
2019-03-05T07:35:12.327Z,26.70
2019-03-05T07:38:05.104Z,26.80
2019-03-05T07:44:53.687Z,26.70
2019-03-05T07:47:47.887Z,26.80
2019-03-05T07:50:40.444Z,26.70
2019-03-05T07:53:35.094Z,26.80
2019-03-05T08:00:25.540Z,26.80
2019-03-05T08:03:18.316Z,26.90
2019-03-05T08:06:11.521Z,26.90
2019-03-05T08:09:20.494Z,27.00
2019-03-05T08:12:47.874Z,26.90
2019-03-05T08:16:01.665Z,26.90
2019-03-05T08:18:46.282Z,26.90
2019-03-05T08:21:38.658Z,26.90
2019-03-05T08:24:32.867Z,26.80
2019-03-05T08:27:25.699Z,26.90
2019-03-05T08:30:19.086Z,27.00
2019-03-05T08:33:13.614Z,27.00
2019-03-05T08:36:09.186Z,27.10
2019-03-05T08:39:01.728Z,27.10
2019-03-05T08:42:07.561Z,27.10
2019-03-05T08:45:08.102Z,27.10
2019-03-05T08:48:05.251Z,27.10
2019-03-05T08:51:06.045Z,27.10
2019-03-05T08:53:51.886Z,27.10
2019-03-05T08:56:49.886Z,27.00
2019-03-05T08:59:53.324Z,27.00
2019-03-05T09:02:48.936Z,27.00
2019-03-05T09:06:00.587Z,27.00
2019-03-05T09:09:12.934Z,27.00
2019-03-05T09:16:19.283Z,27.20
2019-03-05T09:19:11.742Z,27.30
2019-03-05T09:22:05.670Z,27.40
2019-03-05T09:25:06.345Z,27.50
2019-03-05T09:27:59.062Z,27.40
2019-03-05T09:30:51.753Z,27.40
2019-03-05T09:33:44.402Z,27.20
2019-03-05T09:36:50.074Z,27.20
2019-03-05T09:39:34.228Z,27.20
2019-03-05T09:42:28.082Z,27.20
2019-03-05T09:45:25.118Z,27.30
2019-03-05T09:48:18.536Z,27.30
2019-03-05T09:51:13.226Z,27.30
2019-03-05T09:54:08.878Z,27.20
2019-03-05T09:57:03.132Z,27.30
2019-03-05T09:59:56.032Z,27.30
2019-03-05T10:02:51.614Z,27.30
2019-03-05T10:05:44.639Z,27.40
2019-03-05T10:08:39.113Z,27.40
2019-03-05T10:11:32.726Z,27.40
2019-03-05T10:14:26.817Z,27.30
2019-03-05T10:17:25.025Z,27.40
2019-03-05T10:20:26.392Z,27.30
2019-03-05T10:23:22.537Z,27.30
2019-03-05T10:26:15.165Z,27.30
2019-03-05T10:29:08.732Z,27.30
2019-03-05T10:32:01.768Z,27.30
2019-03-05T10:35:03.028Z,27.30
2019-03-05T10:37:58.882Z,27.30
2019-03-05T10:40:56.816Z,27.40
2019-03-05T10:43:51.122Z,27.30
2019-03-05T10:46:46.770Z,27.30
2019-03-05T10:49:40.337Z,27.30
2019-03-05T10:52:47.078Z,27.30
2019-03-05T10:55:37.821Z,27.40
2019-03-05T10:58:34.128Z,27.30
2019-03-05T11:01:36.815Z,27.20
2019-03-05T11:04:31.873Z,27.30
2019-03-05T11:07:26.513Z,27.30
2019-03-05T11:10:21.185Z,27.20
2019-03-05T11:13:16.487Z,27.20
2019-03-05T11:16:12.781Z,27.20
2019-03-05T11:19:06.530Z,27.20
2019-03-05T11:22:00.617Z,27.20
2019-03-05T11:24:54.482Z,27.20
2019-03-05T11:27:48.872Z,27.20
2019-03-05T11:30:43.515Z,27.20
2019-03-05T11:33:35.859Z,27.20
2019-03-05T11:36:31.475Z,27.20
2019-03-05T11:42:31.280Z,27.20
2019-03-05T11:45:26.410Z,27.10
2019-03-05T11:48:23.365Z,27.10
2019-03-05T11:51:34.830Z,27.10
2019-03-05T11:54:27.358Z,27.10
2019-03-05T11:57:20.722Z,27.10
2019-03-05T12:00:15.491Z,27.10
2019-03-05T12:03:08.744Z,27.10
2019-03-05T12:06:02.892Z,27.10
2019-03-05T12:08:55.244Z,27.10
2019-03-05T12:11:48.190Z,27.10
2019-03-05T12:14:40.969Z,27.10
2019-03-05T12:17:33.807Z,27.00
2019-03-05T12:20:30.585Z,27.10
2019-03-05T12:23:24.422Z,27.10
2019-03-05T12:26:17.983Z,27.10
2019-03-05T12:29:13.219Z,27.10
2019-03-05T12:32:05.377Z,27.10
2019-03-05T12:34:58.181Z,27.10
2019-03-05T12:37:54.075Z,27.10
2019-03-05T12:40:46.783Z,27.10
2019-03-05T12:43:40.536Z,27.10
2019-03-05T12:46:33.162Z,27.00
2019-03-05T12:49:28.385Z,27.00
2019-03-05T12:52:22.061Z,27.00
2019-03-05T12:55:14.771Z,27.00
2019-03-05T12:58:08.660Z,27.00
2019-03-05T13:01:01.114Z,27.10
2019-03-05T13:07:40.875Z,27.10
2019-03-05T13:10:37.699Z,27.20
2019-03-05T13:13:30.372Z,27.20
2019-03-05T13:16:22.915Z,27.20
2019-03-05T13:19:15.843Z,27.20
2019-03-05T13:22:08.402Z,27.20
2019-03-05T13:25:03.231Z,27.20
2019-03-05T13:27:57.552Z,27.10
2019-03-05T13:30:49.160Z,27.20
2019-03-05T13:33:44.517Z,27.10
2019-03-05T13:36:35.431Z,27.10
2019-03-05T13:39:27.879Z,27.10
2019-03-05T13:42:20.486Z,27.10
2019-03-05T13:45:13.413Z,27.10
2019-03-05T13:48:08.166Z,27.10
2019-03-05T13:51:19.482Z,27.20
2019-03-05T13:54:29.521Z,27.10
2019-03-05T13:57:40.342Z,27.10
2019-03-05T14:00:33.120Z,27.20
2019-03-05T14:03:30.234Z,27.10
2019-03-05T14:06:40.747Z,27.20
2019-03-05T14:09:31.559Z,27.10
2019-03-05T14:12:24.643Z,27.10
2019-03-05T14:15:17.845Z,27.10
2019-03-05T14:18:10.502Z,27.10
2019-03-05T14:21:04.328Z,27.10
2019-03-05T14:23:56.713Z,27.10
2019-03-05T14:26:49.719Z,27.10
2019-03-05T14:29:42.447Z,27.10
2019-03-05T14:32:34.973Z,27.10
2019-03-05T14:35:28.887Z,27.10
2019-03-05T14:38:23.241Z,27.10
2019-03-05T14:41:16.232Z,27.10
2019-03-05T14:44:09.312Z,27.10
2019-03-05T14:47:03.461Z,27.10
2019-03-05T14:49:56.946Z,27.10
2019-03-05T14:52:49.418Z,27.10
2019-03-05T14:55:42.896Z,27.10
2019-03-05T14:58:36.537Z,27.10
2019-03-05T15:01:29.851Z,27.10
2019-03-05T15:04:22.127Z,27.10
2019-03-05T15:07:15.902Z,27.10
2019-03-05T15:10:10.107Z,27.10
2019-03-05T15:13:14.966Z,27.10
2019-03-05T15:15:57.390Z,27.10
2019-03-05T15:18:50.747Z,27.10
2019-03-05T15:21:44.019Z,27.10
2019-03-05T15:24:36.624Z,27.10
2019-03-05T15:27:29.869Z,27.10
2019-03-05T15:30:22.729Z,27.10
2019-03-05T15:33:14.850Z,27.10
2019-03-05T15:36:07.819Z,27.10
2019-03-05T15:39:00.468Z,27.00
2019-03-05T15:41:59.058Z,27.10
2019-03-05T15:44:56.832Z,27.10
2019-03-05T15:47:50.665Z,27.10
2019-03-05T15:50:48.066Z,27.10
2019-03-05T15:53:42.029Z,27.10
2019-03-05T15:56:37.500Z,27.10
2019-03-05T15:59:33.676Z,27.10
2019-03-05T16:02:27.712Z,27.10
2019-03-05T16:05:30.975Z,27.10
2019-03-05T16:08:26.032Z,27.10
2019-03-05T16:11:21.123Z,27.10
2019-03-05T16:14:17.506Z,27.00
2019-03-05T16:17:11.718Z,27.00
2019-03-05T16:20:09.659Z,27.00
2019-03-05T16:23:03.241Z,27.00
2019-03-05T16:25:56.604Z,27.00
2019-03-05T16:28:52.590Z,27.00
2019-03-05T16:32:02.003Z,27.10
2019-03-05T16:35:19.771Z,27.00
2019-03-05T16:38:30.606Z,27.00
2019-03-05T16:41:40.083Z,27.00
2019-03-05T16:44:51.103Z,27.00
2019-03-05T16:48:14.235Z,27.00
2019-03-05T16:51:11.994Z,27.00
2019-03-05T16:54:35.352Z,27.00
2019-03-05T16:57:53.943Z,27.00
2019-03-05T17:00:58.345Z,27.10
2019-03-05T17:03:59.754Z,26.90
2019-03-05T17:07:10.519Z,26.30
2019-03-05T17:10:15.098Z,25.90
2019-03-05T17:13:07.582Z,25.80
2019-03-05T17:15:59.831Z,26.00
2019-03-05T17:18:51.579Z,26.20
2019-03-05T17:21:43.793Z,26.30
2019-03-05T17:24:36.087Z,26.30
2019-03-05T17:27:28.133Z,26.30
2019-03-05T17:30:20.195Z,26.40
2019-03-05T17:33:12.224Z,26.40
2019-03-05T17:36:05.407Z,26.40
2019-03-05T17:38:57.666Z,26.40
2019-03-05T17:41:49.915Z,26.50
2019-03-05T17:44:42.991Z,26.50
2019-03-05T17:47:35.352Z,26.50
2019-03-05T17:50:29.366Z,26.50
2019-03-05T17:53:21.480Z,26.50
2019-03-05T17:56:13.596Z,26.50
2019-03-05T17:59:06.273Z,26.50
2019-03-05T18:01:58.906Z,26.50
2019-03-05T18:04:52.080Z,26.50
2019-03-05T18:07:46.505Z,26.50
2019-03-05T18:10:40.174Z,26.50
2019-03-05T18:13:32.215Z,26.50
2019-03-05T18:16:25.084Z,26.50
2019-03-05T18:19:17.640Z,26.50
2019-03-05T18:22:10.171Z,26.60
2019-03-05T18:25:02.701Z,26.60
2019-03-05T18:27:56.393Z,26.50
2019-03-05T18:30:48.935Z,26.50
2019-03-05T18:33:41.536Z,26.50
2019-03-05T18:36:33.901Z,26.60
2019-03-05T18:39:27.029Z,26.60
2019-03-05T18:42:19.732Z,26.60
2019-03-05T18:45:14.561Z,26.60
2019-03-05T18:48:07.225Z,26.50
2019-03-05T18:51:00.274Z,26.60
2019-03-05T18:53:52.701Z,26.60
2019-03-05T18:56:46.351Z,26.60
2019-03-05T18:59:38.192Z,26.60
2019-03-05T19:02:30.119Z,26.60
2019-03-05T19:05:22.863Z,26.60
2019-03-05T19:08:14.861Z,26.60
2019-03-05T19:11:09.221Z,26.60
2019-03-05T19:14:01.583Z,26.60
2019-03-05T19:16:54.758Z,26.60
2019-03-05T19:19:50.725Z,26.60
2019-03-05T19:22:43.189Z,26.60
2019-03-05T19:25:37.765Z,26.60
2019-03-05T19:28:31.777Z,26.60
2019-03-05T19:31:25.337Z,26.60
2019-03-05T19:34:20.424Z,26.60
2019-03-05T19:37:17.500Z,26.60
2019-03-05T19:40:13.411Z,26.60
2019-03-05T19:43:05.098Z,26.60
2019-03-05T19:45:57.435Z,26.60
2019-03-05T19:48:50.202Z,26.60
2019-03-05T19:51:47.124Z,26.60
2019-03-05T19:54:39.067Z,26.60
2019-03-05T19:57:31.243Z,26.60
2019-03-05T20:00:33.107Z,26.60
2019-03-05T20:03:25.560Z,26.60
2019-03-05T20:06:18.759Z,26.60
2019-03-05T20:09:13.876Z,26.60
2019-03-05T20:12:05.911Z,26.60
2019-03-05T20:14:58.514Z,26.60
2019-03-05T20:17:58.673Z,26.60
2019-03-05T20:20:43.926Z,26.60
2019-03-05T20:23:35.851Z,26.60
2019-03-05T20:26:28.360Z,26.60
2019-03-05T20:29:20.727Z,26.60
2019-03-05T20:32:13.135Z,26.60
2019-03-05T20:35:05.712Z,26.60
2019-03-05T20:37:58.399Z,26.60
2019-03-05T20:40:50.965Z,26.60
2019-03-05T20:43:44.127Z,26.60
2019-03-05T20:46:36.544Z,26.60
2019-03-05T20:49:28.972Z,26.60
2019-03-05T20:52:20.974Z,26.60
2019-03-05T20:55:14.690Z,26.60
2019-03-05T20:58:06.999Z,26.60
2019-03-05T21:00:59.197Z,26.60
2019-03-05T21:03:51.498Z,26.60
2019-03-05T21:06:44.241Z,26.60
2019-03-05T21:09:36.738Z,26.60
2019-03-05T21:12:28.906Z,26.60
2019-03-05T21:15:20.628Z,26.60
2019-03-05T21:18:12.610Z,26.60
2019-03-05T21:21:04.853Z,26.60
2019-03-05T21:23:56.838Z,26.60
2019-03-05T21:26:48.947Z,26.50
2019-03-05T21:29:41.143Z,26.60
2019-03-05T21:32:33.349Z,26.60
2019-03-05T21:35:25.583Z,26.60
2019-03-05T21:38:18.316Z,26.60
2019-03-05T21:41:10.708Z,26.60
2019-03-05T21:44:02.866Z,26.60
2019-03-05T21:46:55.076Z,26.60
2019-03-05T21:49:47.236Z,26.60
2019-03-05T21:52:39.432Z,26.60
2019-03-05T21:55:31.825Z,26.60
2019-03-05T21:58:24.090Z,26.60
2019-03-05T22:01:16.226Z,26.60
2019-03-05T22:04:08.539Z,26.60
2019-03-05T22:07:00.873Z,26.60
2019-03-05T22:09:53.622Z,26.60
2019-03-05T22:12:45.997Z,26.60
2019-03-05T22:15:38.516Z,26.60
2019-03-05T22:18:30.862Z,26.60
2019-03-05T22:21:22.677Z,26.60
2019-03-05T22:24:15.791Z,26.60
2019-03-05T22:27:07.872Z,26.50
2019-03-05T22:30:00.225Z,26.50
2019-03-05T22:32:52.824Z,26.50
2019-03-05T22:35:45.622Z,26.50
2019-03-05T22:38:38.035Z,26.50
2019-03-05T22:41:30.336Z,26.60
2019-03-05T22:44:22.478Z,26.50
2019-03-05T22:47:14.564Z,26.50
2019-03-05T22:50:07.417Z,26.50
2019-03-05T22:52:59.710Z,26.50
2019-03-05T22:55:52.138Z,26.50
2019-03-05T22:58:44.287Z,26.50
2019-03-05T23:01:41.165Z,26.50
2019-03-05T23:04:37.536Z,26.50
2019-03-05T23:07:29.642Z,26.50
2019-03-05T23:10:21.856Z,26.50
2019-03-05T23:13:15.198Z,26.50
2019-03-05T23:16:08.230Z,26.50
2019-03-05T23:19:00.741Z,26.50
2019-03-05T23:21:53.146Z,26.50
2019-03-05T23:24:45.666Z,26.50
2019-03-05T23:27:38.822Z,26.50
2019-03-05T23:30:31.721Z,26.50
2019-03-05T23:33:23.892Z,26.50
2019-03-05T23:36:15.958Z,26.50
2019-03-05T23:39:09.881Z,26.50
2019-03-05T23:42:03.270Z,26.50
2019-03-05T23:44:55.640Z,26.50
2019-03-05T23:47:48.537Z,26.50
2019-03-05T23:50:41.112Z,26.50
2019-03-05T23:53:33.427Z,26.50
2019-03-05T23:56:25.754Z,26.50
2019-03-05T23:59:18.308Z,26.50
